sensor_id;sensor_type;location;lat;lon;timestamp;pressure;altitude;pressure_sealevel;temperature;humidity
16094;BME280;8151;47.824;12.092;2023-04-19T00:00:24;96677.53;;;11.19;75.93
16094;BME280;8151;47.824;12.092;2023-04-19T00:02:53;96674.22;;;11.17;76.06
16094;BME280;8151;47.824;12.092;2023-04-19T00:05:24;96669.06;;;11.15;76.32
16094;BME280;8151;47.824;12.092;2023-04-19T00:07:53;96663.94;;;11.14;76.05
16094;BME280;8151;47.824;12.092;2023-04-19T00:10:26;96666.56;;;11.14;76.37
16094;BME280;8151;47.824;12.092;2023-04-19T00:12:55;96666.72;;;11.12;75.80
16094;BME280;8151;47.824;12.092;2023-04-19T00:15:23;96665.91;;;11.12;75.85
16094;BME280;8151;47.824;12.092;2023-04-19T00:18:02;96666.88;;;11.11;76.32
16094;BME280;8151;47.824;12.092;2023-04-19T00:20:30;96661.59;;;11.11;76.36
16094;BME280;8151;47.824;12.092;2023-04-19T00:22:59;96665.91;;;11.12;76.22
16094;BME280;8151;47.824;12.092;2023-04-19T00:25:29;96659.81;;;11.11;76.61
16094;BME280;8151;47.824;12.092;2023-04-19T00:27:58;96662.44;;;11.11;76.53
16094;BME280;8151;47.824;12.092;2023-04-19T00:30:27;96656.31;;;11.11;76.50
16094;BME280;8151;47.824;12.092;2023-04-19T00:33:05;96653.84;;;11.09;76.42
16094;BME280;8151;47.824;12.092;2023-04-19T00:35:39;96654.00;;;11.08;76.40
16094;BME280;8151;47.824;12.092;2023-04-19T00:38:08;96648.84;;;11.06;76.68
16094;BME280;8151;47.824;12.092;2023-04-19T00:40:38;96644.72;;;11.03;76.71
16094;BME280;8151;47.824;12.092;2023-04-19T00:43:06;96641.22;;;11.03;76.77
16094;BME280;8151;47.824;12.092;2023-04-19T00:45:35;96643.06;;;11.02;76.96
16094;BME280;8151;47.824;12.092;2023-04-19T00:48:04;96637.75;;;11.02;76.65
16094;BME280;8151;47.824;12.092;2023-04-19T00:50:33;96638.78;;;11.01;76.98
16094;BME280;8151;47.824;12.092;2023-04-19T00:53:02;96635.28;;;11.01;76.92
16094;BME280;8151;47.824;12.092;2023-04-19T00:55:30;96640.09;;;10.97;76.96
16094;BME280;8151;47.824;12.092;2023-04-19T00:58:10;96632.31;;;10.96;77.16
16094;BME280;8151;47.824;12.092;2023-04-19T01:00:39;96635.13;;;10.94;76.64
16094;BME280;8151;47.824;12.092;2023-04-19T01:03:07;96634.28;;;10.94;76.87
16094;BME280;8151;47.824;12.092;2023-04-19T01:05:36;96633.28;;;10.95;77.03
16094;BME280;8151;47.824;12.092;2023-04-19T01:08:10;96636.94;;;10.94;76.97
16094;BME280;8151;47.824;12.092;2023-04-19T01:10:39;96629.00;;;10.94;76.93
16094;BME280;8151;47.824;12.092;2023-04-19T01:13:07;96632.97;;;10.90;77.05
16094;BME280;8151;47.824;12.092;2023-04-19T01:15:37;96626.00;;;10.89;76.91
16094;BME280;8151;47.824;12.092;2023-04-19T01:18:06;96630.63;;;10.87;77.03
16094;BME280;8151;47.824;12.092;2023-04-19T01:20:34;96624.69;;;10.84;77.34
16094;BME280;8151;47.824;12.092;2023-04-19T01:23:04;96623.88;;;10.84;77.58
16094;BME280;8151;47.824;12.092;2023-04-19T01:25:32;96623.00;;;10.83;77.29
16094;BME280;8151;47.824;12.092;2023-04-19T01:28:01;96614.25;;;10.83;77.66
16094;BME280;8151;47.824;12.092;2023-04-19T01:30:29;96615.06;;;10.83;77.24
16094;BME280;8151;47.824;12.092;2023-04-19T01:32:57;96618.56;;;10.84;77.20
16094;BME280;8151;47.824;12.092;2023-04-19T01:35:26;96608.13;;;10.82;77.29
16094;BME280;8151;47.824;12.092;2023-04-19T01:37:55;96610.94;;;10.81;78.03
16094;BME280;8151;47.824;12.092;2023-04-19T01:40:26;96604.81;;;10.80;77.76
16094;BME280;8151;47.824;12.092;2023-04-19T01:42:56;96608.44;;;10.79;78.00
16094;BME280;8151;47.824;12.092;2023-04-19T01:45:24;96601.53;;;10.78;77.69
16094;BME280;8151;47.824;12.092;2023-04-19T01:47:53;96596.22;;;10.78;78.07
16094;BME280;8151;47.824;12.092;2023-04-19T01:50:23;96598.06;;;10.78;78.21
16094;BME280;8151;47.824;12.092;2023-04-19T01:52:51;96604.97;;;10.79;77.71
16094;BME280;8151;47.824;12.092;2023-04-19T01:55:19;96592.75;;;10.78;78.07
16094;BME280;8151;47.824;12.092;2023-04-19T01:57:49;96598.88;;;10.78;77.90
16094;BME280;8151;47.824;12.092;2023-04-19T02:00:21;96594.25;;;10.80;77.67
16094;BME280;8151;47.824;12.092;2023-04-19T02:02:49;96597.88;;;10.79;77.40
16094;BME280;8151;47.824;12.092;2023-04-19T02:05:18;96596.22;;;10.78;78.15
16094;BME280;8151;47.824;12.092;2023-04-19T02:07:47;96594.72;;;10.76;78.11
16094;BME280;8151;47.824;12.092;2023-04-19T02:10:15;96584.13;;;10.76;78.23
16094;BME280;8151;47.824;12.092;2023-04-19T02:12:43;96587.78;;;10.75;78.20
16094;BME280;8151;47.824;12.092;2023-04-19T02:15:23;96584.47;;;10.73;77.67
16094;BME280;8151;47.824;12.092;2023-04-19T02:18:02;96581.97;;;10.71;77.65
16094;BME280;8151;47.824;12.092;2023-04-19T02:20:33;96578.50;;;10.71;78.08
16094;BME280;8151;47.824;12.092;2023-04-19T02:23:01;96578.66;;;10.69;77.95
16094;BME280;8151;47.824;12.092;2023-04-19T02:25:29;96571.72;;;10.68;77.93
16094;BME280;8151;47.824;12.092;2023-04-19T02:27:58;96576.19;;;10.68;78.29
16094;BME280;8151;47.824;12.092;2023-04-19T02:30:27;96568.59;;;10.64;78.21
16094;BME280;8151;47.824;12.092;2023-04-19T02:32:57;96574.84;;;10.63;77.82
16094;BME280;8151;47.824;12.092;2023-04-19T02:35:26;96575.53;;;10.66;78.02
16094;BME280;8151;47.824;12.092;2023-04-19T02:37:54;96573.69;;;10.66;78.07
16094;BME280;8151;47.824;12.092;2023-04-19T02:40:25;96565.94;;;10.64;78.33
16094;BME280;8151;47.824;12.092;2023-04-19T02:42:53;96570.22;;;10.66;77.93
16094;BME280;8151;47.824;12.092;2023-04-19T02:45:22;96566.75;;;10.65;78.15
16094;BME280;8151;47.824;12.092;2023-04-19T02:47:51;96558.81;;;10.65;77.77
16094;BME280;8151;47.824;12.092;2023-04-19T02:50:20;96557.16;;;10.64;78.06
16094;BME280;8151;47.824;12.092;2023-04-19T02:52:52;96555.34;;;10.64;77.94
16094;BME280;8151;47.824;12.092;2023-04-19T02:55:20;96553.38;;;10.67;78.31
16094;BME280;8151;47.824;12.092;2023-04-19T02:57:49;96549.88;;;10.66;78.02
16094;BME280;8151;47.824;12.092;2023-04-19T03:00:18;96548.09;;;10.67;78.10
16094;BME280;8151;47.824;12.092;2023-04-19T03:02:46;96547.22;;;10.66;78.61
16094;BME280;8151;47.824;12.092;2023-04-19T03:05:16;96542.28;;;10.63;78.71
16094;BME280;8151;47.824;12.092;2023-04-19T03:07:45;96549.22;;;10.64;78.59
16094;BME280;8151;47.824;12.092;2023-04-19T03:10:14;96549.22;;;10.64;78.86
16094;BME280;8151;47.824;12.092;2023-04-19T03:12:44;96544.94;;;10.63;78.35
16094;BME280;8151;47.824;12.092;2023-04-19T03:15:13;96549.41;;;10.62;78.51
16094;BME280;8151;47.824;12.092;2023-04-19T03:17:42;96549.56;;;10.61;78.51
16094;BME280;8151;47.824;12.092;2023-04-19T03:20:11;96536.50;;;10.59;78.35
16094;BME280;8151;47.824;12.092;2023-04-19T03:22:40;96539.44;;;10.56;79.10
16094;BME280;8151;47.824;12.092;2023-04-19T03:25:09;96538.63;;;10.56;78.41
16094;BME280;8151;47.824;12.092;2023-04-19T03:27:39;96542.94;;;10.57;79.00
16094;BME280;8151;47.824;12.092;2023-04-19T03:30:08;96537.66;;;10.57;79.13
16094;BME280;8151;47.824;12.092;2023-04-19T03:32:37;96532.53;;;10.55;78.92
16094;BME280;8151;47.824;12.092;2023-04-19T03:35:06;96532.84;;;10.52;78.67
16094;BME280;8151;47.824;12.092;2023-04-19T03:37:35;96530.19;;;10.52;79.21
16094;BME280;8151;47.824;12.092;2023-04-19T03:40:06;96532.53;;;10.55;79.09
16094;BME280;8151;47.824;12.092;2023-04-19T03:42:35;96526.56;;;10.53;79.04
16094;BME280;8151;47.824;12.092;2023-04-19T03:45:04;96527.38;;;10.54;79.19
16094;BME280;8151;47.824;12.092;2023-04-19T03:47:32;96526.41;;;10.55;78.82
16094;BME280;8151;47.824;12.092;2023-04-19T03:50:01;96523.75;;;10.55;79.54
16094;BME280;8151;47.824;12.092;2023-04-19T03:52:29;96527.06;;;10.57;78.91
16094;BME280;8151;47.824;12.092;2023-04-19T03:54:58;96525.41;;;10.56;79.58
16094;BME280;8151;47.824;12.092;2023-04-19T03:57:27;96529.72;;;10.57;79.33
16094;BME280;8151;47.824;12.092;2023-04-19T03:59:56;96528.41;;;10.53;79.33
16094;BME280;8151;47.824;12.092;2023-04-19T04:02:27;96528.19;;;10.54;79.63
16094;BME280;8151;47.824;12.092;2023-04-19T04:04:56;96533.50;;;10.54;79.21
16094;BME280;8151;47.824;12.092;2023-04-19T04:07:25;96529.72;;;10.57;79.61
16094;BME280;8151;47.824;12.092;2023-04-19T04:09:53;96529.72;;;10.57;79.63
16094;BME280;8151;47.824;12.092;2023-04-19T04:12:22;96532.38;;;10.57;79.36
16094;BME280;8151;47.824;12.092;2023-04-19T04:14:51;96525.56;;;10.54;79.78
16094;BME280;8151;47.824;12.092;2023-04-19T04:17:20;96531.69;;;10.55;79.58
16094;BME280;8151;47.824;12.092;2023-04-19T04:19:50;96524.75;;;10.54;79.52
16094;BME280;8151;47.824;12.092;2023-04-19T04:22:19;96525.56;;;10.54;79.77
16094;BME280;8151;47.824;12.092;2023-04-19T04:24:47;96528.03;;;10.56;79.88
16094;BME280;8151;47.824;12.092;2023-04-19T04:27:16;96528.03;;;10.56;79.91
16094;BME280;8151;47.824;12.092;2023-04-19T04:29:47;96529.06;;;10.55;79.48
16094;BME280;8151;47.824;12.092;2023-04-19T04:32:17;96529.38;;;10.52;80.14
16094;BME280;8151;47.824;12.092;2023-04-19T04:34:49;96534.66;;;10.52;80.22
16094;BME280;8151;47.824;12.092;2023-04-19T04:37:18;96538.97;;;10.53;79.85
16094;BME280;8151;47.824;12.092;2023-04-19T04:39:46;96538.13;;;10.52;80.35
16094;BME280;8151;47.824;12.092;2023-04-19T04:42:15;96537.63;;;10.49;79.94
16094;BME280;8151;47.824;12.092;2023-04-19T04:44:43;96529.69;;;10.49;80.15
16094;BME280;8151;47.824;12.092;2023-04-19T04:47:13;96533.00;;;10.42;80.56
16094;BME280;8151;47.824;12.092;2023-04-19T04:49:43;96533.81;;;10.35;80.77
16094;BME280;8151;47.824;12.092;2023-04-19T04:52:11;96524.66;;;10.29;80.61
16094;BME280;8151;47.824;12.092;2023-04-19T04:54:40;96524.00;;;10.19;80.72
16094;BME280;8151;47.824;12.092;2023-04-19T04:57:08;96532.72;;;10.11;81.43
16094;BME280;8151;47.824;12.092;2023-04-19T04:59:36;96520.66;;;10.09;81.40
16094;BME280;8151;47.824;12.092;2023-04-19T05:02:05;96524.63;;;10.13;81.97
16094;BME280;8151;47.824;12.092;2023-04-19T05:04:33;96527.63;;;10.18;82.27
16094;BME280;8151;47.824;12.092;2023-04-19T05:07:03;96524.81;;;10.19;81.96
16094;BME280;8151;47.824;12.092;2023-04-19T05:09:33;96527.63;;;10.18;81.96
16094;BME280;8151;47.824;12.092;2023-04-19T05:12:01;96523.00;;;10.20;81.96
16094;BME280;8151;47.824;12.092;2023-04-19T05:14:29;96531.59;;;10.22;81.86
16094;BME280;8151;47.824;12.092;2023-04-19T05:16:58;96517.06;;;10.26;82.12
16094;BME280;8151;47.824;12.092;2023-04-19T05:19:28;96524.66;;;10.29;81.42
16094;BME280;8151;47.824;12.092;2023-04-19T05:21:56;96523.72;;;10.30;81.82
16094;BME280;8151;47.824;12.092;2023-04-19T05:24:27;96521.34;;;10.27;81.76
16094;BME280;8151;47.824;12.092;2023-04-19T05:27:00;96515.56;;;10.23;81.89
16094;BME280;8151;47.824;12.092;2023-04-19T05:29:28;96522.34;;;10.18;81.69
16094;BME280;8151;47.824;12.092;2023-04-19T05:31:57;96520.00;;;10.15;82.35
16094;BME280;8151;47.824;12.092;2023-04-19T05:34:27;96516.88;;;10.11;82.39
16094;BME280;8151;47.824;12.092;2023-04-19T05:36:56;96514.72;;;10.15;82.36
16094;BME280;8151;47.824;12.092;2023-04-19T05:39:27;96512.25;;;10.21;81.98
16094;BME280;8151;47.824;12.092;2023-04-19T05:41:56;96519.72;;;10.26;82.93
16094;BME280;8151;47.824;12.092;2023-04-19T05:44:25;96517.75;;;10.28;82.30
16094;BME280;8151;47.824;12.092;2023-04-19T05:46:54;96516.41;;;10.24;82.65
16094;BME280;8151;47.824;12.092;2023-04-19T05:49:22;96516.72;;;10.21;82.67
16094;BME280;8151;47.824;12.092;2023-04-19T05:51:51;96516.56;;;10.22;82.89
16094;BME280;8151;47.824;12.092;2023-04-19T05:54:21;96515.09;;;10.28;83.08
16094;BME280;8151;47.824;12.092;2023-04-19T05:56:51;96511.97;;;10.33;82.97
16094;BME280;8151;47.824;12.092;2023-04-19T05:59:19;96512.81;;;10.33;82.64
16094;BME280;8151;47.824;12.092;2023-04-19T06:01:48;96507.53;;;10.33;82.29
16094;BME280;8151;47.824;12.092;2023-04-19T06:04:17;96510.19;;;10.33;82.54
16094;BME280;8151;47.824;12.092;2023-04-19T06:06:46;96512.47;;;10.36;82.17
16094;BME280;8151;47.824;12.092;2023-04-19T06:09:14;96512.31;;;10.38;82.63
16094;BME280;8151;47.824;12.092;2023-04-19T06:11:44;96510.50;;;10.38;82.19
16094;BME280;8151;47.824;12.092;2023-04-19T06:14:19;96510.34;;;10.40;82.17
16094;BME280;8151;47.824;12.092;2023-04-19T06:16:47;96507.53;;;10.41;82.61
16094;BME280;8151;47.824;12.092;2023-04-19T06:19:15;96516.13;;;10.43;82.29
16094;BME280;8151;47.824;12.092;2023-04-19T06:21:44;96513.34;;;10.45;82.63
16094;BME280;8151;47.824;12.092;2023-04-19T06:24:13;96506.53;;;10.42;82.32
16094;BME280;8151;47.824;12.092;2023-04-19T06:26:42;96511.16;;;10.40;82.66
16094;BME280;8151;47.824;12.092;2023-04-19T06:29:13;96507.69;;;10.40;82.47
16094;BME280;8151;47.824;12.092;2023-04-19T06:31:42;96510.19;;;10.41;82.73
16094;BME280;8151;47.824;12.092;2023-04-19T06:34:12;96504.91;;;10.41;83.08
16094;BME280;8151;47.824;12.092;2023-04-19T06:36:40;96507.69;;;10.40;82.57
16094;BME280;8151;47.824;12.092;2023-04-19T06:39:09;96509.84;;;10.44;82.80
16094;BME280;8151;47.824;12.092;2023-04-19T06:41:37;96507.19;;;10.44;82.92
16094;BME280;8151;47.824;12.092;2023-04-19T06:44:06;96511.31;;;10.39;83.49
16094;BME280;8151;47.824;12.092;2023-04-19T06:46:34;96513.81;;;10.40;82.98
16094;BME280;8151;47.824;12.092;2023-04-19T06:49:04;96511.81;;;10.42;82.86
16094;BME280;8151;47.824;12.092;2023-04-19T06:51:33;96518.44;;;10.47;82.90
16094;BME280;8151;47.824;12.092;2023-04-19T06:54:01;96517.16;;;10.51;82.92
16094;BME280;8151;47.824;12.092;2023-04-19T06:56:38;96510.19;;;10.50;83.22
16094;BME280;8151;47.824;12.092;2023-04-19T06:59:08;96508.38;;;10.50;83.55
16094;BME280;8151;47.824;12.092;2023-04-19T07:01:37;96503.72;;;10.52;82.80
16094;BME280;8151;47.824;12.092;2023-04-19T07:04:07;96503.56;;;10.54;83.22
16094;BME280;8151;47.824;12.092;2023-04-19T07:06:36;96498.13;;;10.55;83.09
16094;BME280;8151;47.824;12.092;2023-04-19T07:09:06;96504.25;;;10.56;83.09
16094;BME280;8151;47.824;12.092;2023-04-19T07:11:35;96505.06;;;10.56;83.09
16094;BME280;8151;47.824;12.092;2023-04-19T07:14:03;96500.25;;;10.60;83.04
16094;BME280;8151;47.824;12.092;2023-04-19T07:16:32;96502.75;;;10.61;83.02
16094;BME280;8151;47.824;12.092;2023-04-19T07:19:01;96496.66;;;10.61;83.00
16094;BME280;8151;47.824;12.092;2023-04-19T07:21:31;96496.28;;;10.64;83.08
16094;BME280;8151;47.824;12.092;2023-04-19T07:24:04;96492.66;;;10.65;82.90
16094;BME280;8151;47.824;12.092;2023-04-19T07:26:33;96493.50;;;10.66;82.61
16094;BME280;8151;47.824;12.092;2023-04-19T07:29:03;96487.19;;;10.58;83.38
16094;BME280;8151;47.824;12.092;2023-04-19T07:31:31;96489.03;;;10.58;83.55
16094;BME280;8151;47.824;12.092;2023-04-19T07:34:03;96486.38;;;10.58;83.54
16094;BME280;8151;47.824;12.092;2023-04-19T07:36:33;96485.56;;;10.57;83.16
16094;BME280;8151;47.824;12.092;2023-04-19T07:39:03;96497.63;;;10.60;82.92
16094;BME280;8151;47.824;12.092;2023-04-19T07:41:31;96482.41;;;10.62;83.22
16094;BME280;8151;47.824;12.092;2023-04-19T07:44:03;96484.22;;;10.61;82.98
16094;BME280;8151;47.824;12.092;2023-04-19T07:46:32;96480.41;;;10.64;83.45
16094;BME280;8151;47.824;12.092;2023-04-19T07:49:01;96476.44;;;10.68;83.30
16094;BME280;8151;47.824;12.092;2023-04-19T07:51:30;96476.28;;;10.70;83.20
16094;BME280;8151;47.824;12.092;2023-04-19T07:54:02;96471.34;;;10.75;83.30
16094;BME280;8151;47.824;12.092;2023-04-19T07:56:31;96488.03;;;10.75;82.80
16094;BME280;8151;47.824;12.092;2023-04-19T07:59:01;96480.09;;;10.75;83.03
16094;BME280;8151;47.824;12.092;2023-04-19T08:01:35;96484.56;;;10.75;83.30
16094;BME280;8151;47.824;12.092;2023-04-19T08:04:04;96480.75;;;10.77;83.54
16094;BME280;8151;47.824;12.092;2023-04-19T08:06:33;96474.47;;;10.78;83.00
16094;BME280;8151;47.824;12.092;2023-04-19T08:09:05;96469.84;;;10.72;83.61
16094;BME280;8151;47.824;12.092;2023-04-19T08:11:33;96475.81;;;10.74;83.20
16094;BME280;8151;47.824;12.092;2023-04-19T08:14:02;96479.94;;;10.77;83.26
16094;BME280;8151;47.824;12.092;2023-04-19T08:16:50;96480.91;;;10.76;83.38
16094;BME280;8151;47.824;12.092;2023-04-19T08:19:22;96474.78;;;10.75;83.38
16094;BME280;8151;47.824;12.092;2023-04-19T08:21:50;96468.84;;;10.73;83.82
16094;BME280;8151;47.824;12.092;2023-04-19T08:24:20;96467.88;;;10.74;83.85
16094;BME280;8151;47.824;12.092;2023-04-19T08:26:48;96471.66;;;10.80;83.54
16094;BME280;8151;47.824;12.092;2023-04-19T08:29:21;96470.50;;;10.82;83.38
16094;BME280;8151;47.824;12.092;2023-04-19T08:31:49;96472.13;;;10.83;83.46
16094;BME280;8151;47.824;12.092;2023-04-19T08:34:18;96467.84;;;10.82;84.04
16094;BME280;8151;47.824;12.092;2023-04-19T08:36:47;96468.34;;;10.86;83.89
16094;BME280;8151;47.824;12.092;2023-04-19T08:39:31;96470.47;;;10.91;83.54
16094;BME280;8151;47.824;12.092;2023-04-19T08:42:03;96470.31;;;10.92;83.85
16094;BME280;8151;47.824;12.092;2023-04-19T08:44:45;96460.56;;;10.93;83.72
16094;BME280;8151;47.824;12.092;2023-04-19T08:47:16;96457.25;;;10.91;83.58
16094;BME280;8151;47.824;12.092;2023-04-19T08:49:58;96466.84;;;10.92;83.66
16094;BME280;8151;47.824;12.092;2023-04-19T08:52:43;96464.88;;;10.94;83.66
16094;BME280;8151;47.824;12.092;2023-04-19T08:55:26;96457.91;;;10.93;83.77
16094;BME280;8151;47.824;12.092;2023-04-19T08:57:55;96463.69;;;10.96;83.50
16094;BME280;8151;47.824;12.092;2023-04-19T09:00:28;96458.56;;;10.95;83.35
16094;BME280;8151;47.824;12.092;2023-04-19T09:02:57;96449.28;;;10.99;83.39
16094;BME280;8151;47.824;12.092;2023-04-19T09:05:26;96454.41;;;11.00;83.36
16094;BME280;8151;47.824;12.092;2023-04-19T09:08:22;96447.00;;;10.96;83.95
16094;BME280;8151;47.824;12.092;2023-04-19T09:10:56;96449.47;;;10.97;83.42
16094;BME280;8151;47.824;12.092;2023-04-19T09:13:26;96438.03;;;10.97;83.53
16094;BME280;8151;47.824;12.092;2023-04-19T09:15:55;96440.38;;;10.92;84.08
16094;BME280;8151;47.824;12.092;2023-04-19T09:18:25;96437.38;;;10.95;83.82
16094;BME280;8151;47.824;12.092;2023-04-19T09:20:58;96440.19;;;11.01;83.48
16094;BME280;8151;47.824;12.092;2023-04-19T09:23:27;96437.53;;;11.10;83.62
16094;BME280;8151;47.824;12.092;2023-04-19T09:25:58;96436.34;;;11.12;83.51
16094;BME280;8151;47.824;12.092;2023-04-19T09:28:30;96428.41;;;11.12;83.77
16094;BME280;8151;47.824;12.092;2023-04-19T09:31:09;96427.91;;;11.17;83.48
16094;BME280;8151;47.824;12.092;2023-04-19T09:34:11;96426.09;;;11.17;83.54
16094;BME280;8151;47.824;12.092;2023-04-19T09:36:40;96421.13;;;11.14;83.50
16094;BME280;8151;47.824;12.092;2023-04-19T09:39:09;96422.44;;;11.10;83.66
16094;BME280;8151;47.824;12.092;2023-04-19T09:41:50;96414.66;;;11.09;83.82
16094;BME280;8151;47.824;12.092;2023-04-19T09:44:20;96413.38;;;11.13;83.65
16094;BME280;8151;47.824;12.092;2023-04-19T09:46:51;96411.00;;;11.18;83.84
16094;BME280;8151;47.824;12.092;2023-04-19T09:49:21;96410.84;;;11.19;83.40
16094;BME280;8151;47.824;12.092;2023-04-19T09:52:12;96408.53;;;11.16;83.94
16094;BME280;8151;47.824;12.092;2023-04-19T09:54:41;96408.38;;;11.18;83.30
16094;BME280;8151;47.824;12.092;2023-04-19T09:57:11;96406.44;;;11.03;84.17
16094;BME280;8151;47.824;12.092;2023-04-19T09:59:40;96397.88;;;10.85;84.29
16094;BME280;8151;47.824;12.092;2023-04-19T10:02:09;96405.81;;;10.77;84.62
16094;BME280;8151;47.824;12.092;2023-04-19T10:04:41;96397.38;;;10.73;84.41
16094;BME280;8151;47.824;12.092;2023-04-19T10:07:31;96401.22;;;10.71;84.20
16094;BME280;8151;47.824;12.092;2023-04-19T10:10:02;96393.44;;;10.69;84.47
16094;BME280;8151;47.824;12.092;2023-04-19T10:12:48;96390.78;;;10.69;84.36
16094;BME280;8151;47.824;12.092;2023-04-19T10:15:40;96392.13;;;10.65;84.64
16094;BME280;8151;47.824;12.092;2023-04-19T10:18:22;96389.47;;;10.65;84.04
16094;BME280;8151;47.824;12.092;2023-04-19T10:20:55;96389.63;;;10.72;83.87
16094;BME280;8151;47.824;12.092;2023-04-19T10:23:26;96384.50;;;10.70;84.14
16094;BME280;8151;47.824;12.092;2023-04-19T10:25:56;96391.13;;;10.74;84.23
16094;BME280;8151;47.824;12.092;2023-04-19T10:28:28;96386.81;;;10.73;83.87
16094;BME280;8151;47.824;12.092;2023-04-19T10:30:58;96379.69;;;10.74;84.32
16094;BME280;8151;47.824;12.092;2023-04-19T10:33:33;96383.19;;;10.74;84.25
16094;BME280;8151;47.824;12.092;2023-04-19T10:36:06;96373.09;;;10.70;84.13
16094;BME280;8151;47.824;12.092;2023-04-19T10:38:37;96375.22;;;10.66;84.31
16094;BME280;8151;47.824;12.092;2023-04-19T10:41:06;96380.19;;;10.69;84.23
16094;BME280;8151;47.824;12.092;2023-04-19T10:43:46;96378.06;;;10.73;83.88
16094;BME280;8151;47.824;12.092;2023-04-19T10:46:34;96370.94;;;10.73;84.19
16094;BME280;8151;47.824;12.092;2023-04-19T10:49:04;96363.81;;;10.74;84.32
16094;BME280;8151;47.824;12.092;2023-04-19T10:51:34;96360.03;;;10.76;84.28
16094;BME280;8151;47.824;12.092;2023-04-19T10:54:05;96358.69;;;10.80;84.17
16094;BME280;8151;47.824;12.092;2023-04-19T10:56:56;96348.75;;;10.82;84.07
16094;BME280;8151;47.824;12.092;2023-04-19T10:59:29;96336.34;;;10.83;83.58
16094;BME280;8151;47.824;12.092;2023-04-19T11:02:00;96337.34;;;10.82;83.71
16094;BME280;8151;47.824;12.092;2023-04-19T11:04:58;96331.53;;;10.87;83.97
16094;BME280;8151;47.824;12.092;2023-04-19T11:07:28;96325.50;;;11.01;83.88
16094;BME280;8151;47.824;12.092;2023-04-19T11:10:04;96323.81;;;11.08;83.80
16094;BME280;8151;47.824;12.092;2023-04-19T11:12:33;96324.66;;;11.09;83.47
16094;BME280;8151;47.824;12.092;2023-04-19T11:15:05;96315.03;;;11.16;83.35
16094;BME280;8151;47.824;12.092;2023-04-19T11:17:35;96314.47;;;11.29;83.37
16094;BME280;8151;47.824;12.092;2023-04-19T11:20:07;96305.19;;;11.33;83.02
16094;BME280;8151;47.824;12.092;2023-04-19T11:22:38;96302.81;;;11.38;83.18
16094;BME280;8151;47.824;12.092;2023-04-19T11:25:09;96296.53;;;11.39;82.96
16094;BME280;8151;47.824;12.092;2023-04-19T11:27:38;96292.34;;;11.45;83.14
16094;BME280;8151;47.824;12.092;2023-04-19T11:30:11;96293.66;;;11.49;82.60
16094;BME280;8151;47.824;12.092;2023-04-19T11:32:46;96286.81;;;11.54;82.89
16094;BME280;8151;47.824;12.092;2023-04-19T11:35:18;96284.25;;;11.69;82.47
16094;BME280;8151;47.824;12.092;2023-04-19T11:37:47;96280.50;;;11.78;82.31
16094;BME280;8151;47.824;12.092;2023-04-19T11:40:16;96269.03;;;11.86;81.88
16094;BME280;8151;47.824;12.092;2023-04-19T11:42:45;96277.78;;;11.95;81.79
16094;BME280;8151;47.824;12.092;2023-04-19T11:45:24;96268.94;;;12.02;81.55
16094;BME280;8151;47.824;12.092;2023-04-19T11:47:58;96269.31;;;12.14;81.58
16094;BME280;8151;47.824;12.092;2023-04-19T11:50:31;96257.25;;;12.27;81.24
16094;BME280;8151;47.824;12.092;2023-04-19T11:53:09;96255.91;;;12.46;80.84
16094;BME280;8151;47.824;12.092;2023-04-19T11:55:41;96257.00;;;12.66;80.47
16094;BME280;8151;47.824;12.092;2023-04-19T11:58:25;96253.50;;;12.80;80.35
16094;BME280;8151;47.824;12.092;2023-04-19T12:01:00;96246.06;;;12.91;80.02
16094;BME280;8151;47.824;12.092;2023-04-19T12:03:30;96243.69;;;12.96;79.75
16094;BME280;8151;47.824;12.092;2023-04-19T12:06:01;96239.56;;;12.93;79.80
16094;BME280;8151;47.824;12.092;2023-04-19T12:08:33;96239.75;;;12.92;79.71
16094;BME280;8151;47.824;12.092;2023-04-19T12:11:06;96232.25;;;12.95;79.65
16094;BME280;8151;47.824;12.092;2023-04-19T12:13:35;96237.00;;;13.00;79.29
16094;BME280;8151;47.824;12.092;2023-04-19T12:16:06;96235.25;;;12.92;79.55
16094;BME280;8151;47.824;12.092;2023-04-19T12:18:46;96226.84;;;12.89;79.46
16094;BME280;8151;47.824;12.092;2023-04-19T12:21:25;96219.09;;;12.87;79.18
16094;BME280;8151;47.824;12.092;2023-04-19T12:23:55;96228.03;;;12.86;79.32
16094;BME280;8151;47.824;12.092;2023-04-19T12:26:25;96234.00;;;12.73;79.30
16094;BME280;8151;47.824;12.092;2023-04-19T12:28:54;96234.31;;;12.49;79.38
16094;BME280;8151;47.824;12.092;2023-04-19T12:31:24;96237.31;;;12.16;79.54
16094;BME280;8151;47.824;12.092;2023-04-19T12:33:53;96242.09;;;11.97;79.47
16094;BME280;8151;47.824;12.092;2023-04-19T12:36:22;96240.34;;;11.90;79.17
16094;BME280;8151;47.824;12.092;2023-04-19T12:38:50;96244.91;;;11.81;78.77
16094;BME280;8151;47.824;12.092;2023-04-19T12:41:18;96243.47;;;11.70;79.18
16094;BME280;8151;47.824;12.092;2023-04-19T12:43:48;96245.38;;;11.61;79.25
16094;BME280;8151;47.824;12.092;2023-04-19T12:46:17;96241.13;;;11.52;79.77
16094;BME280;8151;47.824;12.092;2023-04-19T12:48:47;96239.72;;;11.41;79.90
16094;BME280;8151;47.824;12.092;2023-04-19T12:51:15;96243.06;;;11.35;79.70
16094;BME280;8151;47.824;12.092;2023-04-19T12:53:46;96243.59;;;11.31;80.21
16094;BME280;8151;47.824;12.092;2023-04-19T12:56:15;96239.47;;;11.28;80.26
16094;BME280;8151;47.824;12.092;2023-04-19T12:58:44;96247.59;;;11.27;80.15
16094;BME280;8151;47.824;12.092;2023-04-19T13:01:15;96252.06;;;11.26;80.59
16094;BME280;8151;47.824;12.092;2023-04-19T13:03:43;96254.91;;;11.25;80.50
16094;BME280;8151;47.824;12.092;2023-04-19T13:06:13;96249.63;;;11.25;80.85
16094;BME280;8151;47.824;12.092;2023-04-19T13:08:43;96247.94;;;11.23;80.70
16094;BME280;8151;47.824;12.092;2023-04-19T13:11:15;96244.66;;;11.21;80.86
16094;BME280;8151;47.824;12.092;2023-04-19T13:13:50;96250.28;;;11.18;80.77
16094;BME280;8151;47.824;12.092;2023-04-19T13:16:19;96250.66;;;11.15;80.85
16094;BME280;8151;47.824;12.092;2023-04-19T13:18:48;96256.44;;;11.11;81.37